• Join FlightAware (Why Join?)
  • Login
  • US Flag 
01:07AM EST


 

Airport Tracker/Info


-or-


 

Live Flight TrackerFlight Track Log ✈ GLA154 ✈ 16-Apr-2013 ✈ KPRC - KIGM

Flight Track Log - Related Links

Times and Time Zones

All times are in EDT time to prevent confusion due to time zone crossing. See the GLA154 flight status page for this flight to view local times or setup timezone preferences in your user account.

Time Position Orientation Groundspeed Altitude Reporting Facility
EDT Latitude Longitude Course Direction KTS MPH feet Rate Location/Type
09:43AM 34.6361 -112.4503 301° West 142 163 6,700  Level Los Angeles Center
09:43AM 34.6361 -112.4503 301° West 141 162 6,700 2,460 Level Albuquerque Center
09:44AM 34.6803 -112.4764 334° Northwest 198 228 9,300 2,460 Climbing Albuquerque Center
09:45AM 34.7353 -112.5158 329° Northwest 194 223 11,800 1,860 Climbing Albuquerque Center
09:46AM 34.7636 -112.5708 302° West 189 217 13,100 1,080 Climbing Albuquerque Center
09:47AM 34.7917 -112.6303 300° West 199 229 14,000 840 Climbing Albuquerque Center
09:48AM 35.1861 -112.9890 301° West  Level FlightAware Approximate
09:48AM 34.8225 -112.6911 302° West 208 239 14,900  Level Albuquerque Center
09:49AM 34.8567 -112.7533 304° West 218 251 16,000 600 Climbing Albuquerque Center
09:50AM 34.8889 -112.8200 301° West 225 259 16,200  Climbing Albuquerque Center
09:51AM 34.9211 -112.8939 298° West 240 276 16,000 -60 Descending Albuquerque Center
09:52AM 34.9531 -112.9689 297° West 247 284 16,100  Climbing Albuquerque Center
09:53AM 34.9856 -113.0411 299° West 244 281 16,100 -60 Level Albuquerque Center
09:54AM 35.0186 -113.1125 299° West 242 278 16,000 -60 Descending Albuquerque Center
09:55AM 35.0553 -113.1950 299° West 233 268 16,000  Level Albuquerque Center
09:56AM 35.0800 -113.2658 293° West 228 262 16,100  Climbing Albuquerque Center
09:57AM 35.1064 -113.3358 295° West 227 261 16,100 -660 Level Albuquerque Center
09:58AM 35.1289 -113.4067 291° West 224 258 14,800 -1,380 Descending Albuquerque Center
09:58AM 35.1331 -113.4217 289° West 223 257 14,400 -1,560 Descending Los Angeles Center
09:59AM 35.1492 -113.4950 285° West 223 257 12,800 -1,620 Descending Los Angeles Center